createdAt,value
2022-09-01T00:01:27.363Z,13.40
2022-09-01T00:03:55.922Z,13.57
2022-09-01T00:06:24.845Z,13.35
2022-09-01T00:08:54.704Z,12.70
2022-09-01T00:11:23.671Z,12.95
2022-09-01T00:16:20.031Z,18.77
2022-09-01T00:18:50.683Z,14.25
2022-09-01T00:21:30.510Z,15.43
2022-09-01T00:23:58.026Z,15.95
2022-09-01T00:26:24.996Z,19.00
2022-09-01T00:28:52.034Z,18.75
2022-09-01T00:31:20.302Z,20.23
2022-09-01T00:33:49.183Z,16.33
2022-09-01T00:36:17.775Z,19.75
2022-09-01T00:38:45.307Z,17.02
2022-09-01T00:41:13.267Z,17.90
2022-09-01T00:43:50.549Z,18.42
2022-09-01T00:46:30.428Z,18.60
2022-09-01T00:49:03.282Z,17.50
2022-09-01T00:51:33.460Z,16.48
2022-09-01T00:54:01.851Z,15.82
2022-09-01T00:56:30.690Z,16.35
2022-09-01T00:58:57.834Z,15.60
2022-09-01T01:01:24.824Z,17.58
2022-09-01T01:03:52.495Z,17.83
2022-09-01T01:06:23.949Z,16.30
2022-09-01T01:08:57.979Z,18.17
2022-09-01T01:11:28.160Z,18.02
2022-09-01T01:14:15.689Z,19.25
2022-09-01T01:16:45.394Z,18.55
2022-09-01T01:19:49.240Z,18.25
2022-09-01T01:23:05.695Z,17.67
2022-09-01T01:25:40.594Z,17.25
2022-09-01T01:28:22.519Z,17.25
2022-09-01T01:30:56.190Z,17.13
2022-09-01T01:33:33.084Z,16.65
2022-09-01T01:36:02.106Z,17.73
2022-09-01T01:38:30.435Z,17.33
2022-09-01T01:40:58.922Z,17.63
2022-09-01T01:43:27.763Z,27.35
2022-09-01T01:45:59.320Z,18.83
2022-09-01T01:48:34.759Z,19.85
2022-09-01T01:51:02.583Z,17.45
2022-09-01T01:53:29.818Z,18.80
2022-09-01T01:55:59.174Z,19.35
2022-09-01T01:58:30.566Z,20.65
2022-09-01T02:00:59.258Z,19.42
2022-09-01T02:03:31.249Z,21.60
2022-09-01T02:06:01.371Z,23.38
2022-09-01T02:08:28.463Z,20.48
2022-09-01T02:10:57.981Z,20.25
2022-09-01T02:13:31.412Z,20.98
2022-09-01T02:16:02.256Z,20.55
2022-09-01T02:18:38.581Z,20.23
2022-09-01T02:21:16.413Z,18.02
2022-09-01T02:23:48.982Z,17.88
2022-09-01T02:26:19.210Z,18.50
2022-09-01T02:28:54.895Z,19.98
2022-09-01T02:31:28.332Z,21.33
2022-09-01T02:33:57.554Z,19.88
2022-09-01T02:36:25.873Z,17.00
2022-09-01T02:38:55.224Z,15.95
2022-09-01T02:41:25.350Z,17.00
2022-09-01T02:43:54.375Z,17.70
2022-09-01T02:46:24.916Z,16.63
2022-09-01T02:48:53.503Z,16.73
2022-09-01T02:51:25.925Z,17.70
2022-09-01T02:53:53.774Z,17.73
2022-09-01T02:56:25.931Z,16.73
2022-09-01T02:58:54.580Z,16.60
2022-09-01T03:01:30.385Z,17.27
2022-09-01T03:04:05.955Z,18.30
2022-09-01T03:06:34.783Z,18.00
2022-09-01T03:09:04.467Z,21.27
2022-09-01T03:11:34.509Z,18.15
2022-09-01T03:14:01.740Z,20.15
2022-09-01T03:16:33.388Z,19.30
2022-09-01T03:19:03.424Z,23.42
2022-09-01T03:21:32.279Z,20.77
2022-09-01T03:24:02.272Z,18.88
2022-09-01T03:26:30.775Z,23.38
2022-09-01T03:28:59.306Z,23.30
2022-09-01T03:31:31.107Z,25.17
2022-09-01T03:34:01.045Z,25.20
2022-09-01T03:36:33.552Z,24.00
2022-09-01T03:39:01.149Z,22.60
2022-09-01T03:41:31.081Z,21.05
2022-09-01T03:43:59.548Z,21.25
2022-09-01T03:46:36.449Z,20.67
2022-09-01T03:49:07.607Z,19.77
2022-09-01T03:51:39.383Z,20.65
2022-09-01T03:54:08.435Z,23.25
2022-09-01T03:56:35.800Z,21.45
2022-09-01T03:59:02.932Z,23.20
2022-09-01T04:01:38.195Z,26.58
2022-09-01T04:04:06.821Z,30.63
2022-09-01T04:06:36.947Z,28.70
2022-09-01T04:09:03.998Z,33.45
2022-09-01T04:11:33.707Z,37.45
2022-09-01T04:14:02.139Z,35.53
2022-09-01T04:16:53.420Z,38.13
2022-09-01T04:19:26.840Z,29.80
2022-09-01T04:22:02.130Z,27.88
2022-09-01T04:24:49.378Z,28.27
2022-09-01T04:27:18.462Z,26.20
2022-09-01T04:29:48.670Z,26.33
2022-09-01T04:32:17.182Z,28.17
2022-09-01T04:34:50.212Z,26.15
2022-09-01T04:37:22.267Z,33.33
2022-09-01T04:40:08.082Z,32.05
2022-09-01T04:42:35.162Z,32.30
2022-09-01T04:45:10.572Z,39.27
